sensor_id;sensor_type;location;lat;lon;timestamp;P1;durP1;ratioP1;P2;durP2;ratioP2
16426;SDS011;8322;-33.900;151.170;2023-10-08T00:01:50;3.30;;;1.00;;
16426;SDS011;8322;-33.900;151.170;2023-10-08T00:04:21;2.53;;;1.00;;
16426;SDS011;8322;-33.900;151.170;2023-10-08T00:06:51;3.67;;;0.90;;
16426;SDS011;8322;-33.900;151.170;2023-10-08T00:09:21;4.25;;;0.98;;
16426;SDS011;8322;-33.900;151.170;2023-10-08T00:11:51;3.90;;;1.05;;
16426;SDS011;8322;-33.900;151.170;2023-10-08T00:14:23;2.45;;;0.77;;
16426;SDS011;8322;-33.900;151.170;2023-10-08T00:16:54;4.90;;;1.10;;
16426;SDS011;8322;-33.900;151.170;2023-10-08T00:19:23;4.68;;;1.10;;
16426;SDS011;8322;-33.900;151.170;2023-10-08T00:21:59;1.98;;;0.90;;
16426;SDS011;8322;-33.900;151.170;2023-10-08T00:24:33;4.38;;;1.17;;
16426;SDS011;8322;-33.900;151.170;2023-10-08T00:27:07;4.22;;;1.20;;
16426;SDS011;8322;-33.900;151.170;2023-10-08T00:29:38;2.65;;;1.00;;
16426;SDS011;8322;-33.900;151.170;2023-10-08T00:32:09;2.58;;;0.88;;
16426;SDS011;8322;-33.900;151.170;2023-10-08T00:34:43;2.53;;;1.10;;
16426;SDS011;8322;-33.900;151.170;2023-10-08T00:37:12;4.82;;;1.88;;
16426;SDS011;8322;-33.900;151.170;2023-10-08T00:39:42;4.25;;;1.55;;
16426;SDS011;8322;-33.900;151.170;2023-10-08T00:42:12;6.45;;;3.13;;
16426;SDS011;8322;-33.900;151.170;2023-10-08T00:44:43;5.43;;;2.90;;
16426;SDS011;8322;-33.900;151.170;2023-10-08T00:47:17;3.95;;;1.80;;
16426;SDS011;8322;-33.900;151.170;2023-10-08T00:49:51;2.67;;;0.90;;
16426;SDS011;8322;-33.900;151.170;2023-10-08T00:52:33;3.03;;;1.55;;
16426;SDS011;8322;-33.900;151.170;2023-10-08T00:55:11;5.20;;;1.10;;
16426;SDS011;8322;-33.900;151.170;2023-10-08T00:57:56;2.95;;;1.30;;
16426;SDS011;8322;-33.900;151.170;2023-10-08T01:00:36;4.88;;;2.78;;
16426;SDS011;8322;-33.900;151.170;2023-10-08T01:03:07;4.53;;;1.50;;
16426;SDS011;8322;-33.900;151.170;2023-10-08T01:05:42;4.00;;;1.60;;
16426;SDS011;8322;-33.900;151.170;2023-10-08T01:08:15;3.53;;;1.45;;
16426;SDS011;8322;-33.900;151.170;2023-10-08T01:10:49;4.30;;;1.10;;
16426;SDS011;8322;-33.900;151.170;2023-10-08T01:13:26;1.55;;;0.90;;
16426;SDS011;8322;-33.900;151.170;2023-10-08T01:16:10;3.20;;;1.00;;
16426;SDS011;8322;-33.900;151.170;2023-10-08T01:18:40;2.60;;;1.10;;
16426;SDS011;8322;-33.900;151.170;2023-10-08T01:21:17;3.63;;;0.90;;
16426;SDS011;8322;-33.900;151.170;2023-10-08T01:24:01;4.50;;;1.15;;
16426;SDS011;8322;-33.900;151.170;2023-10-08T01:26:32;4.28;;;1.30;;
16426;SDS011;8322;-33.900;151.170;2023-10-08T01:29:07;3.45;;;1.30;;
16426;SDS011;8322;-33.900;151.170;2023-10-08T01:31:45;4.30;;;1.30;;
16426;SDS011;8322;-33.900;151.170;2023-10-08T01:34:15;5.18;;;1.20;;
16426;SDS011;8322;-33.900;151.170;2023-10-08T01:36:44;6.95;;;1.25;;
16426;SDS011;8322;-33.900;151.170;2023-10-08T01:39:16;3.58;;;1.05;;
16426;SDS011;8322;-33.900;151.170;2023-10-08T01:41:46;6.63;;;1.48;;
16426;SDS011;8322;-33.900;151.170;2023-10-08T01:44:17;2.85;;;1.00;;
16426;SDS011;8322;-33.900;151.170;2023-10-08T01:46:46;2.78;;;1.10;;
16426;SDS011;8322;-33.900;151.170;2023-10-08T01:49:16;3.80;;;1.10;;
16426;SDS011;8322;-33.900;151.170;2023-10-08T01:51:48;3.15;;;0.93;;
16426;SDS011;8322;-33.900;151.170;2023-10-08T01:54:21;4.32;;;1.10;;
16426;SDS011;8322;-33.900;151.170;2023-10-08T01:56:52;4.22;;;1.20;;
16426;SDS011;8322;-33.900;151.170;2023-10-08T01:59:21;2.65;;;1.15;;
16426;SDS011;8322;-33.900;151.170;2023-10-08T02:01:51;5.85;;;1.30;;
16426;SDS011;8322;-33.900;151.170;2023-10-08T02:04:23;2.92;;;1.13;;
16426;SDS011;8322;-33.900;151.170;2023-10-08T02:06:53;5.65;;;1.42;;
16426;SDS011;8322;-33.900;151.170;2023-10-08T02:09:24;4.53;;;1.30;;
16426;SDS011;8322;-33.900;151.170;2023-10-08T02:11:54;3.90;;;1.25;;
16426;SDS011;8322;-33.900;151.170;2023-10-08T02:14:24;4.18;;;1.10;;
16426;SDS011;8322;-33.900;151.170;2023-10-08T02:16:57;4.28;;;1.30;;
16426;SDS011;8322;-33.900;151.170;2023-10-08T02:19:32;3.40;;;0.93;;
16426;SDS011;8322;-33.900;151.170;2023-10-08T02:22:03;3.83;;;1.10;;
16426;SDS011;8322;-33.900;151.170;2023-10-08T02:24:37;4.63;;;1.20;;
16426;SDS011;8322;-33.900;151.170;2023-10-08T02:27:09;7.00;;;1.10;;
16426;SDS011;8322;-33.900;151.170;2023-10-08T02:29:41;3.28;;;1.20;;
16426;SDS011;8322;-33.900;151.170;2023-10-08T02:32:10;3.88;;;1.00;;
16426;SDS011;8322;-33.900;151.170;2023-10-08T02:34:40;3.97;;;1.20;;
16426;SDS011;8322;-33.900;151.170;2023-10-08T02:37:09;2.50;;;1.17;;
16426;SDS011;8322;-33.900;151.170;2023-10-08T02:39:41;5.40;;;1.10;;
16426;SDS011;8322;-33.900;151.170;2023-10-08T02:42:10;6.03;;;1.30;;
16426;SDS011;8322;-33.900;151.170;2023-10-08T02:44:40;8.73;;;1.20;;
16426;SDS011;8322;-33.900;151.170;2023-10-08T02:47:10;4.35;;;1.23;;
16426;SDS011;8322;-33.900;151.170;2023-10-08T02:49:40;4.28;;;1.10;;
16426;SDS011;8322;-33.900;151.170;2023-10-08T02:52:13;6.85;;;1.40;;
16426;SDS011;8322;-33.900;151.170;2023-10-08T02:54:45;5.60;;;1.40;;
16426;SDS011;8322;-33.900;151.170;2023-10-08T02:57:18;6.50;;;1.33;;
16426;SDS011;8322;-33.900;151.170;2023-10-08T02:59:48;2.90;;;0.85;;
16426;SDS011;8322;-33.900;151.170;2023-10-08T03:02:20;3.60;;;0.93;;
16426;SDS011;8322;-33.900;151.170;2023-10-08T03:04:51;3.17;;;1.10;;
16426;SDS011;8322;-33.900;151.170;2023-10-08T03:07:21;5.13;;;1.38;;
16426;SDS011;8322;-33.900;151.170;2023-10-08T03:09:59;6.18;;;1.13;;
16426;SDS011;8322;-33.900;151.170;2023-10-08T03:12:32;5.05;;;1.20;;
16426;SDS011;8322;-33.900;151.170;2023-10-08T03:15:02;8.65;;;1.10;;
16426;SDS011;8322;-33.900;151.170;2023-10-08T03:17:40;4.97;;;1.10;;
16426;SDS011;8322;-33.900;151.170;2023-10-08T03:20:17;2.90;;;1.20;;
16426;SDS011;8322;-33.900;151.170;2023-10-08T03:23:08;5.25;;;1.10;;
16426;SDS011;8322;-33.900;151.170;2023-10-08T03:25:54;3.85;;;1.10;;
16426;SDS011;8322;-33.900;151.170;2023-10-08T03:28:26;6.03;;;1.02;;
16426;SDS011;8322;-33.900;151.170;2023-10-08T03:30:55;4.90;;;1.60;;
16426;SDS011;8322;-33.900;151.170;2023-10-08T03:33:31;4.28;;;1.20;;
16426;SDS011;8322;-33.900;151.170;2023-10-08T03:36:03;3.10;;;0.90;;
16426;SDS011;8322;-33.900;151.170;2023-10-08T03:38:40;4.20;;;1.08;;
16426;SDS011;8322;-33.900;151.170;2023-10-08T03:41:18;2.63;;;0.95;;
16426;SDS011;8322;-33.900;151.170;2023-10-08T03:43:53;2.40;;;1.02;;
16426;SDS011;8322;-33.900;151.170;2023-10-08T03:46:28;2.85;;;0.90;;
16426;SDS011;8322;-33.900;151.170;2023-10-08T03:48:57;3.30;;;0.77;;
16426;SDS011;8322;-33.900;151.170;2023-10-08T03:51:30;4.03;;;1.10;;
16426;SDS011;8322;-33.900;151.170;2023-10-08T03:54:05;2.95;;;1.00;;
16426;SDS011;8322;-33.900;151.170;2023-10-08T03:56:43;2.67;;;0.90;;
16426;SDS011;8322;-33.900;151.170;2023-10-08T03:59:15;2.92;;;1.15;;
16426;SDS011;8322;-33.900;151.170;2023-10-08T04:01:56;3.88;;;0.75;;
16426;SDS011;8322;-33.900;151.170;2023-10-08T04:04:39;4.85;;;1.02;;
16426;SDS011;8322;-33.900;151.170;2023-10-08T04:07:19;4.45;;;0.70;;
16426;SDS011;8322;-33.900;151.170;2023-10-08T04:10:05;1.90;;;0.80;;
16426;SDS011;8322;-33.900;151.170;2023-10-08T04:13:07;5.75;;;0.95;;
16426;SDS011;8322;-33.900;151.170;2023-10-08T04:15:36;3.55;;;0.93;;
16426;SDS011;8322;-33.900;151.170;2023-10-08T04:18:06;2.47;;;0.82;;
16426;SDS011;8322;-33.900;151.170;2023-10-08T04:20:36;3.10;;;0.90;;
16426;SDS011;8322;-33.900;151.170;2023-10-08T04:23:17;4.93;;;1.00;;
16426;SDS011;8322;-33.900;151.170;2023-10-08T04:25:47;2.85;;;0.80;;
16426;SDS011;8322;-33.900;151.170;2023-10-08T04:28:22;3.47;;;0.80;;
16426;SDS011;8322;-33.900;151.170;2023-10-08T04:30:54;3.65;;;0.77;;
16426;SDS011;8322;-33.900;151.170;2023-10-08T04:33:42;4.13;;;0.88;;
16426;SDS011;8322;-33.900;151.170;2023-10-08T04:36:13;4.38;;;1.20;;
16426;SDS011;8322;-33.900;151.170;2023-10-08T04:38:46;3.80;;;0.88;;
16426;SDS011;8322;-33.900;151.170;2023-10-08T04:41:20;3.90;;;1.10;;
16426;SDS011;8322;-33.900;151.170;2023-10-08T04:43:56;4.38;;;0.90;;
16426;SDS011;8322;-33.900;151.170;2023-10-08T04:46:29;3.10;;;0.98;;
16426;SDS011;8322;-33.900;151.170;2023-10-08T04:49:12;3.08;;;0.80;;
16426;SDS011;8322;-33.900;151.170;2023-10-08T04:51:59;2.78;;;0.70;;
16426;SDS011;8322;-33.900;151.170;2023-10-08T04:54:33;3.15;;;1.05;;
16426;SDS011;8322;-33.900;151.170;2023-10-08T04:57:06;2.75;;;0.82;;
16426;SDS011;8322;-33.900;151.170;2023-10-08T04:59:43;2.53;;;0.90;;
16426;SDS011;8322;-33.900;151.170;2023-10-08T05:02:15;3.03;;;0.88;;
16426;SDS011;8322;-33.900;151.170;2023-10-08T05:04:59;3.40;;;0.88;;
16426;SDS011;8322;-33.900;151.170;2023-10-08T05:07:45;4.07;;;0.98;;
16426;SDS011;8322;-33.900;151.170;2023-10-08T05:10:43;2.60;;;0.90;;
16426;SDS011;8322;-33.900;151.170;2023-10-08T05:13:27;4.45;;;0.95;;
16426;SDS011;8322;-33.900;151.170;2023-10-08T05:16:13;3.95;;;1.30;;
16426;SDS011;8322;-33.900;151.170;2023-10-08T05:19:02;4.65;;;1.25;;
16426;SDS011;8322;-33.900;151.170;2023-10-08T05:21:56;2.95;;;0.80;;
16426;SDS011;8322;-33.900;151.170;2023-10-08T05:24:44;2.97;;;0.80;;
16426;SDS011;8322;-33.900;151.170;2023-10-08T05:27:33;2.90;;;0.77;;
16426;SDS011;8322;-33.900;151.170;2023-10-08T05:30:22;3.25;;;0.90;;
16426;SDS011;8322;-33.900;151.170;2023-10-08T05:33:06;3.45;;;0.70;;
16426;SDS011;8322;-33.900;151.170;2023-10-08T05:35:50;1.30;;;0.70;;
16426;SDS011;8322;-33.900;151.170;2023-10-08T05:38:28;1.65;;;0.70;;
16426;SDS011;8322;-33.900;151.170;2023-10-08T05:41:14;2.33;;;0.90;;
16426;SDS011;8322;-33.900;151.170;2023-10-08T05:43:57;4.68;;;1.20;;
16426;SDS011;8322;-33.900;151.170;2023-10-08T05:46:57;2.85;;;1.10;;
16426;SDS011;8322;-33.900;151.170;2023-10-08T05:49:51;1.45;;;0.60;;
16426;SDS011;8322;-33.900;151.170;2023-10-08T05:52:33;2.92;;;0.73;;
16426;SDS011;8322;-33.900;151.170;2023-10-08T05:55:17;4.15;;;0.80;;
16426;SDS011;8322;-33.900;151.170;2023-10-08T05:57:52;3.08;;;0.80;;
16426;SDS011;8322;-33.900;151.170;2023-10-08T06:00:39;2.47;;;0.90;;
16426;SDS011;8322;-33.900;151.170;2023-10-08T06:03:31;2.50;;;0.93;;
16426;SDS011;8322;-33.900;151.170;2023-10-08T06:06:05;1.80;;;0.80;;
16426;SDS011;8322;-33.900;151.170;2023-10-08T06:08:51;2.95;;;0.80;;
16426;SDS011;8322;-33.900;151.170;2023-10-08T06:11:35;3.35;;;0.90;;
16426;SDS011;8322;-33.900;151.170;2023-10-08T06:14:10;4.90;;;1.00;;
16426;SDS011;8322;-33.900;151.170;2023-10-08T06:16:54;1.35;;;0.68;;
16426;SDS011;8322;-33.900;151.170;2023-10-08T06:19:39;4.05;;;1.00;;
16426;SDS011;8322;-33.900;151.170;2023-10-08T06:22:10;1.83;;;0.90;;
16426;SDS011;8322;-33.900;151.170;2023-10-08T06:24:40;3.28;;;0.80;;
16426;SDS011;8322;-33.900;151.170;2023-10-08T06:27:09;1.52;;;0.70;;
16426;SDS011;8322;-33.900;151.170;2023-10-08T06:29:43;4.28;;;1.25;;
16426;SDS011;8322;-33.900;151.170;2023-10-08T06:32:12;5.40;;;1.55;;
16426;SDS011;8322;-33.900;151.170;2023-10-08T06:34:42;2.95;;;1.00;;
16426;SDS011;8322;-33.900;151.170;2023-10-08T06:37:13;4.57;;;1.70;;
16426;SDS011;8322;-33.900;151.170;2023-10-08T06:39:44;5.50;;;1.10;;
16426;SDS011;8322;-33.900;151.170;2023-10-08T06:42:15;2.78;;;1.65;;
16426;SDS011;8322;-33.900;151.170;2023-10-08T06:44:44;1.48;;;0.70;;
16426;SDS011;8322;-33.900;151.170;2023-10-08T06:47:14;4.30;;;1.38;;
16426;SDS011;8322;-33.900;151.170;2023-10-08T06:49:44;3.40;;;1.27;;
16426;SDS011;8322;-33.900;151.170;2023-10-08T06:52:16;2.95;;;1.38;;
16426;SDS011;8322;-33.900;151.170;2023-10-08T06:54:46;3.03;;;1.38;;
16426;SDS011;8322;-33.900;151.170;2023-10-08T06:57:19;4.32;;;1.45;;
16426;SDS011;8322;-33.900;151.170;2023-10-08T06:59:48;3.45;;;1.02;;
16426;SDS011;8322;-33.900;151.170;2023-10-08T07:02:18;4.68;;;1.60;;
16426;SDS011;8322;-33.900;151.170;2023-10-08T07:04:47;4.78;;;2.03;;
16426;SDS011;8322;-33.900;151.170;2023-10-08T07:07:19;5.63;;;2.05;;
16426;SDS011;8322;-33.900;151.170;2023-10-08T07:09:48;6.25;;;3.00;;
16426;SDS011;8322;-33.900;151.170;2023-10-08T07:12:22;9.95;;;6.18;;
16426;SDS011;8322;-33.900;151.170;2023-10-08T07:14:51;4.40;;;1.27;;
16426;SDS011;8322;-33.900;151.170;2023-10-08T07:17:22;2.65;;;1.30;;
16426;SDS011;8322;-33.900;151.170;2023-10-08T07:19:53;4.95;;;2.45;;
16426;SDS011;8322;-33.900;151.170;2023-10-08T07:22:25;6.03;;;2.03;;
16426;SDS011;8322;-33.900;151.170;2023-10-08T07:24:55;4.45;;;1.88;;
16426;SDS011;8322;-33.900;151.170;2023-10-08T07:27:25;5.47;;;2.10;;
16426;SDS011;8322;-33.900;151.170;2023-10-08T07:29:58;8.25;;;3.65;;
16426;SDS011;8322;-33.900;151.170;2023-10-08T07:32:28;5.72;;;2.63;;
16426;SDS011;8322;-33.900;151.170;2023-10-08T07:34:58;6.88;;;3.10;;
16426;SDS011;8322;-33.900;151.170;2023-10-08T07:37:51;8.60;;;2.80;;
16426;SDS011;8322;-33.900;151.170;2023-10-08T07:40:21;3.72;;;1.90;;
16426;SDS011;8322;-33.900;151.170;2023-10-08T07:42:55;6.28;;;2.63;;
16426;SDS011;8322;-33.900;151.170;2023-10-08T07:45:27;7.10;;;2.38;;
16426;SDS011;8322;-33.900;151.170;2023-10-08T07:48:01;3.38;;;1.67;;
16426;SDS011;8322;-33.900;151.170;2023-10-08T07:50:35;4.25;;;2.20;;
16426;SDS011;8322;-33.900;151.170;2023-10-08T07:53:11;7.47;;;4.47;;
16426;SDS011;8322;-33.900;151.170;2023-10-08T07:55:45;10.77;;;5.95;;
16426;SDS011;8322;-33.900;151.170;2023-10-08T07:58:15;7.38;;;2.75;;
16426;SDS011;8322;-33.900;151.170;2023-10-08T08:00:46;8.02;;;2.40;;
16426;SDS011;8322;-33.900;151.170;2023-10-08T08:03:26;5.43;;;1.77;;
16426;SDS011;8322;-33.900;151.170;2023-10-08T08:05:57;6.80;;;3.85;;
16426;SDS011;8322;-33.900;151.170;2023-10-08T08:08:28;6.70;;;3.53;;
16426;SDS011;8322;-33.900;151.170;2023-10-08T08:10:58;7.75;;;3.50;;
16426;SDS011;8322;-33.900;151.170;2023-10-08T08:13:31;6.13;;;1.73;;
16426;SDS011;8322;-33.900;151.170;2023-10-08T08:16:01;4.80;;;2.10;;
16426;SDS011;8322;-33.900;151.170;2023-10-08T08:18:42;6.15;;;3.15;;
16426;SDS011;8322;-33.900;151.170;2023-10-08T08:21:12;5.05;;;2.88;;
16426;SDS011;8322;-33.900;151.170;2023-10-08T08:23:44;8.07;;;4.55;;
16426;SDS011;8322;-33.900;151.170;2023-10-08T08:26:16;9.00;;;5.18;;
16426;SDS011;8322;-33.900;151.170;2023-10-08T08:28:55;8.05;;;4.00;;
16426;SDS011;8322;-33.900;151.170;2023-10-08T08:31:26;7.15;;;4.35;;
16426;SDS011;8322;-33.900;151.170;2023-10-08T08:33:57;8.80;;;4.18;;
16426;SDS011;8322;-33.900;151.170;2023-10-08T08:36:29;7.40;;;4.03;;
16426;SDS011;8322;-33.900;151.170;2023-10-08T08:39:01;4.40;;;2.50;;
16426;SDS011;8322;-33.900;151.170;2023-10-08T08:41:36;3.33;;;1.67;;
16426;SDS011;8322;-33.900;151.170;2023-10-08T08:44:06;7.85;;;3.22;;
16426;SDS011;8322;-33.900;151.170;2023-10-08T08:46:36;8.60;;;3.70;;
16426;SDS011;8322;-33.900;151.170;2023-10-08T08:49:06;7.80;;;3.83;;
16426;SDS011;8322;-33.900;151.170;2023-10-08T08:51:37;5.07;;;2.60;;
16426;SDS011;8322;-33.900;151.170;2023-10-08T08:54:09;8.10;;;4.28;;
16426;SDS011;8322;-33.900;151.170;2023-10-08T08:56:41;8.35;;;3.42;;
16426;SDS011;8322;-33.900;151.170;2023-10-08T08:59:11;7.93;;;2.92;;
16426;SDS011;8322;-33.900;151.170;2023-10-08T09:01:43;8.52;;;3.25;;
16426;SDS011;8322;-33.900;151.170;2023-10-08T09:04:14;4.05;;;2.50;;
16426;SDS011;8322;-33.900;151.170;2023-10-08T09:06:43;8.18;;;3.63;;
16426;SDS011;8322;-33.900;151.170;2023-10-08T09:09:14;4.85;;;1.92;;
16426;SDS011;8322;-33.900;151.170;2023-10-08T09:11:49;4.00;;;1.58;;
16426;SDS011;8322;-33.900;151.170;2023-10-08T09:14:21;4.97;;;1.92;;
16426;SDS011;8322;-33.900;151.170;2023-10-08T09:16:51;5.03;;;2.55;;
16426;SDS011;8322;-33.900;151.170;2023-10-08T09:19:22;11.35;;;4.57;;
16426;SDS011;8322;-33.900;151.170;2023-10-08T09:22:02;5.55;;;1.55;;
16426;SDS011;8322;-33.900;151.170;2023-10-08T09:24:34;21.58;;;9.07;;
16426;SDS011;8322;-33.900;151.170;2023-10-08T09:27:04;19.02;;;9.68;;
16426;SDS011;8322;-33.900;151.170;2023-10-08T09:29:34;5.72;;;2.38;;
16426;SDS011;8322;-33.900;151.170;2023-10-08T09:32:05;4.40;;;2.30;;
16426;SDS011;8322;-33.900;151.170;2023-10-08T09:34:35;5.13;;;2.90;;
16426;SDS011;8322;-33.900;151.170;2023-10-08T09:37:05;9.10;;;3.92;;
16426;SDS011;8322;-33.900;151.170;2023-10-08T09:39:37;6.68;;;2.10;;
16426;SDS011;8322;-33.900;151.170;2023-10-08T09:42:08;5.43;;;2.45;;
16426;SDS011;8322;-33.900;151.170;2023-10-08T09:44:40;3.45;;;1.98;;
16426;SDS011;8322;-33.900;151.170;2023-10-08T09:47:10;6.28;;;1.58;;
16426;SDS011;8322;-33.900;151.170;2023-10-08T09:49:41;6.30;;;2.40;;
16426;SDS011;8322;-33.900;151.170;2023-10-08T09:52:15;3.63;;;1.90;;
16426;SDS011;8322;-33.900;151.170;2023-10-08T09:54:48;3.25;;;1.73;;
16426;SDS011;8322;-33.900;151.170;2023-10-08T09:57:18;4.78;;;1.80;;
16426;SDS011;8322;-33.900;151.170;2023-10-08T09:59:50;2.80;;;1.83;;
16426;SDS011;8322;-33.900;151.170;2023-10-08T10:02:19;3.38;;;1.85;;
16426;SDS011;8322;-33.900;151.170;2023-10-08T10:04:52;3.00;;;1.90;;
16426;SDS011;8322;-33.900;151.170;2023-10-08T10:07:24;2.45;;;1.38;;
16426;SDS011;8322;-33.900;151.170;2023-10-08T10:09:56;4.07;;;1.38;;
16426;SDS011;8322;-33.900;151.170;2023-10-08T10:12:26;3.97;;;1.30;;
16426;SDS011;8322;-33.900;151.170;2023-10-08T10:14:56;6.30;;;2.40;;
16426;SDS011;8322;-33.900;151.170;2023-10-08T10:17:26;5.22;;;2.28;;
16426;SDS011;8322;-33.900;151.170;2023-10-08T10:19:57;3.38;;;2.10;;
16426;SDS011;8322;-33.900;151.170;2023-10-08T10:22:29;4.57;;;1.75;;
16426;SDS011;8322;-33.900;151.170;2023-10-08T10:25:01;4.72;;;1.83;;
16426;SDS011;8322;-33.900;151.170;2023-10-08T10:27:41;3.80;;;1.45;;
16426;SDS011;8322;-33.900;151.170;2023-10-08T10:30:10;2.10;;;1.33;;
16426;SDS011;8322;-33.900;151.170;2023-10-08T10:32:44;5.43;;;2.28;;
16426;SDS011;8322;-33.900;151.170;2023-10-08T10:35:14;6.60;;;3.40;;
16426;SDS011;8322;-33.900;151.170;2023-10-08T10:37:46;9.20;;;4.55;;
16426;SDS011;8322;-33.900;151.170;2023-10-08T10:40:21;4.22;;;2.00;;
16426;SDS011;8322;-33.900;151.170;2023-10-08T10:42:56;4.72;;;1.55;;
16426;SDS011;8322;-33.900;151.170;2023-10-08T10:45:28;2.50;;;1.08;;
16426;SDS011;8322;-33.900;151.170;2023-10-08T10:48:06;3.80;;;1.20;;
16426;SDS011;8322;-33.900;151.170;2023-10-08T10:50:39;2.25;;;1.00;;
16426;SDS011;8322;-33.900;151.170;2023-10-08T10:53:34;3.47;;;1.30;;
16426;SDS011;8322;-33.900;151.170;2023-10-08T10:56:15;5.32;;;2.00;;
16426;SDS011;8322;-33.900;151.170;2023-10-08T10:58:47;4.75;;;2.40;;
16426;SDS011;8322;-33.900;151.170;2023-10-08T11:01:22;4.25;;;1.73;;
16426;SDS011;8322;-33.900;151.170;2023-10-08T11:03:50;5.22;;;1.33;;
16426;SDS011;8322;-33.900;151.170;2023-10-08T11:06:23;12.43;;;6.32;;
16426;SDS011;8322;-33.900;151.170;2023-10-08T11:08:53;7.90;;;4.30;;
16426;SDS011;8322;-33.900;151.170;2023-10-08T11:11:27;7.53;;;3.88;;
16426;SDS011;8322;-33.900;151.170;2023-10-08T11:13:57;5.85;;;2.17;;
16426;SDS011;8322;-33.900;151.170;2023-10-08T11:16:29;3.45;;;1.17;;
16426;SDS011;8322;-33.900;151.170;2023-10-08T11:18:59;1.95;;;1.00;;
16426;SDS011;8322;-33.900;151.170;2023-10-08T11:21:32;3.53;;;0.90;;
16426;SDS011;8322;-33.900;151.170;2023-10-08T11:24:02;3.13;;;1.20;;
16426;SDS011;8322;-33.900;151.170;2023-10-08T11:26:39;3.22;;;1.10;;
16426;SDS011;8322;-33.900;151.170;2023-10-08T11:29:27;5.57;;;1.30;;
16426;SDS011;8322;-33.900;151.170;2023-10-08T11:31:57;2.25;;;1.00;;
16426;SDS011;8322;-33.900;151.170;2023-10-08T11:34:31;3.92;;;1.40;;
16426;SDS011;8322;-33.900;151.170;2023-10-08T11:37:05;2.08;;;1.10;;
16426;SDS011;8322;-33.900;151.170;2023-10-08T11:39:46;2.08;;;1.20;;
16426;SDS011;8322;-33.900;151.170;2023-10-08T11:42:18;4.00;;;1.30;;
16426;SDS011;8322;-33.900;151.170;2023-10-08T11:45:06;1.75;;;0.90;;
16426;SDS011;8322;-33.900;151.170;2023-10-08T11:47:50;3.60;;;1.17;;
16426;SDS011;8322;-33.900;151.170;2023-10-08T11:50:24;2.17;;;1.20;;
16426;SDS011;8322;-33.900;151.170;2023-10-08T11:52:58;2.22;;;1.10;;
16426;SDS011;8322;-33.900;151.170;2023-10-08T11:55:32;2.65;;;1.20;;
16426;SDS011;8322;-33.900;151.170;2023-10-08T11:58:05;4.75;;;1.40;;
16426;SDS011;8322;-33.900;151.170;2023-10-08T12:00:38;3.42;;;1.00;;
16426;SDS011;8322;-33.900;151.170;2023-10-08T12:03:12;2.53;;;1.10;;
16426;SDS011;8322;-33.900;151.170;2023-10-08T12:05:44;4.80;;;1.42;;
16426;SDS011;8322;-33.900;151.170;2023-10-08T12:08:15;2.35;;;1.25;;
16426;SDS011;8322;-33.900;151.170;2023-10-08T12:10:46;3.20;;;1.10;;
16426;SDS011;8322;-33.900;151.170;2023-10-08T12:13:21;2.83;;;1.10;;
16426;SDS011;8322;-33.900;151.170;2023-10-08T12:15:52;3.55;;;1.15;;
16426;SDS011;8322;-33.900;151.170;2023-10-08T12:18:31;2.38;;;1.00;;
16426;SDS011;8322;-33.900;151.170;2023-10-08T12:21:05;3.00;;;1.13;;
16426;SDS011;8322;-33.900;151.170;2023-10-08T12:23:37;2.92;;;1.00;;
16426;SDS011;8322;-33.900;151.170;2023-10-08T12:26:06;2.72;;;1.25;;
16426;SDS011;8322;-33.900;151.170;2023-10-08T12:28:39;4.05;;;1.20;;
16426;SDS011;8322;-33.900;151.170;2023-10-08T12:31:10;3.30;;;1.17;;
16426;SDS011;8322;-33.900;151.170;2023-10-08T12:33:41;3.65;;;1.17;;
16426;SDS011;8322;-33.900;151.170;2023-10-08T12:36:11;4.63;;;1.20;;
16426;SDS011;8322;-33.900;151.170;2023-10-08T12:38:42;4.70;;;1.33;;
16426;SDS011;8322;-33.900;151.170;2023-10-08T12:41:13;1.85;;;1.10;;
16426;SDS011;8322;-33.900;151.170;2023-10-08T12:43:46;3.45;;;1.65;;
16426;SDS011;8322;-33.900;151.170;2023-10-08T12:46:18;6.10;;;1.70;;
16426;SDS011;8322;-33.900;151.170;2023-10-08T12:48:50;3.28;;;1.20;;
16426;SDS011;8322;-33.900;151.170;2023-10-08T12:51:20;3.67;;;1.50;;
16426;SDS011;8322;-33.900;151.170;2023-10-08T12:53:51;2.00;;;1.35;;
16426;SDS011;8322;-33.900;151.170;2023-10-08T12:56:29;3.65;;;1.58;;
16426;SDS011;8322;-33.900;151.170;2023-10-08T12:59:07;3.63;;;1.10;;
16426;SDS011;8322;-33.900;151.170;2023-10-08T13:01:46;5.35;;;1.98;;
16426;SDS011;8322;-33.900;151.170;2023-10-08T13:04:17;3.70;;;1.88;;
16426;SDS011;8322;-33.900;151.170;2023-10-08T13:06:52;4.47;;;1.70;;
16426;SDS011;8322;-33.900;151.170;2023-10-08T13:09:23;4.78;;;1.40;;
16426;SDS011;8322;-33.900;151.170;2023-10-08T13:11:52;2.88;;;1.50;;
16426;SDS011;8322;-33.900;151.170;2023-10-08T13:14:23;2.90;;;1.50;;
16426;SDS011;8322;-33.900;151.170;2023-10-08T13:16:53;5.38;;;1.60;;
16426;SDS011;8322;-33.900;151.170;2023-10-08T13:19:22;3.00;;;1.52;;
16426;SDS011;8322;-33.900;151.170;2023-10-08T13:21:52;5.05;;;1.67;;
16426;SDS011;8322;-33.900;151.170;2023-10-08T13:24:21;5.03;;;1.50;;
16426;SDS011;8322;-33.900;151.170;2023-10-08T13:26:54;2.00;;;1.30;;
16426;SDS011;8322;-33.900;151.170;2023-10-08T13:29:26;6.50;;;1.48;;
16426;SDS011;8322;-33.900;151.170;2023-10-08T13:31:58;3.85;;;1.52;;
16426;SDS011;8322;-33.900;151.170;2023-10-08T13:34:30;3.38;;;1.52;;
16426;SDS011;8322;-33.900;151.170;2023-10-08T13:36:59;4.70;;;1.80;;
16426;SDS011;8322;-33.900;151.170;2023-10-08T13:39:28;4.35;;;1.98;;
16426;SDS011;8322;-33.900;151.170;2023-10-08T13:42:01;4.50;;;1.80;;
16426;SDS011;8322;-33.900;151.170;2023-10-08T13:44:32;5.10;;;1.90;;
16426;SDS011;8322;-33.900;151.170;2023-10-08T13:47:01;6.05;;;1.88;;
16426;SDS011;8322;-33.900;151.170;2023-10-08T13:49:31;3.28;;;1.55;;
16426;SDS011;8322;-33.900;151.170;2023-10-08T13:52:01;3.90;;;1.80;;
16426;SDS011;8322;-33.900;151.170;2023-10-08T13:54:30;5.60;;;1.85;;
16426;SDS011;8322;-33.900;151.170;2023-10-08T13:57:01;4.63;;;1.67;;
16426;SDS011;8322;-33.900;151.170;2023-10-08T13:59:36;5.43;;;2.22;;
16426;SDS011;8322;-33.900;151.170;2023-10-08T14:02:05;2.80;;;1.60;;
16426;SDS011;8322;-33.900;151.170;2023-10-08T14:04:40;5.72;;;1.80;;
16426;SDS011;8322;-33.900;151.170;2023-10-08T14:07:10;3.35;;;1.58;;
16426;SDS011;8322;-33.900;151.170;2023-10-08T14:09:42;3.78;;;1.60;;
16426;SDS011;8322;-33.900;151.170;2023-10-08T14:12:13;4.90;;;1.80;;
16426;SDS011;8322;-33.900;151.170;2023-10-08T14:14:44;2.85;;;1.65;;
16426;SDS011;8322;-33.900;151.170;2023-10-08T14:17:15;4.22;;;1.60;;
16426;SDS011;8322;-33.900;151.170;2023-10-08T14:20:04;3.30;;;1.58;;
16426;SDS011;8322;-33.900;151.170;2023-10-08T14:22:39;4.38;;;1.48;;
16426;SDS011;8322;-33.900;151.170;2023-10-08T14:25:10;3.78;;;1.60;;
16426;SDS011;8322;-33.900;151.170;2023-10-08T14:27:41;5.82;;;1.35;;
16426;SDS011;8322;-33.900;151.170;2023-10-08T14:30:19;5.05;;;1.48;;
16426;SDS011;8322;-33.900;151.170;2023-10-08T14:32:50;3.80;;;1.67;;
16426;SDS011;8322;-33.900;151.170;2023-10-08T14:35:23;2.33;;;1.38;;
16426;SDS011;8322;-33.900;151.170;2023-10-08T14:38:09;1.67;;;1.40;;
16426;SDS011;8322;-33.900;151.170;2023-10-08T14:40:55;3.70;;;1.42;;
16426;SDS011;8322;-33.900;151.170;2023-10-08T14:43:41;2.03;;;1.42;;
16426;SDS011;8322;-33.900;151.170;2023-10-08T14:46:13;3.63;;;1.50;;
16426;SDS011;8322;-33.900;151.170;2023-10-08T14:48:42;2.53;;;1.48;;
16426;SDS011;8322;-33.900;151.170;2023-10-08T14:51:12;3.42;;;1.60;;
16426;SDS011;8322;-33.900;151.170;2023-10-08T14:53:45;3.47;;;1.45;;
16426;SDS011;8322;-33.900;151.170;2023-10-08T14:56:14;2.13;;;1.50;;
16426;SDS011;8322;-33.900;151.170;2023-10-08T14:58:44;5.28;;;1.75;;
16426;SDS011;8322;-33.900;151.170;2023-10-08T15:01:16;5.05;;;1.70;;